Wendell, Minnesota
Current Conditions -  °F | °C
As of 7:16 AM on Friday 31 Oct 2014 (Local Time) from KY63 Reporting Station
Clear Clear  
Wind Chill: 19°   Ceiling: Unl
Heat Index: 19°   Visibility: 10mi
Dew Point: 18°   Wind: 3mph
Humidity: 98%   Direction: 320°NW
Pressure: 30.58"   Gusts: NA
Location:  46.04°N, 96.1°W
Report Text: KY63 311216Z AUTO 32003KT 10SM CLR M07/M08 A3058 RMK AO2 T10751078
Loading
Personal Weather Stations






























Interactive Weather Map
Tropical Storm Tracking
New forecast layout! Learn more

10-Day Weather Forecast

Advertisements
Track Severe Weather on mobile